sensor_id;sensor_type;location;lat;lon;timestamp;P1;P4;P2;P0;N10;N4;N25;N1;N05;TS
71641;SPS30;60657;50.122;14.468;2023-03-14T00:02:52;9.378;9.378;9.378;8.868;70.799;70.789;70.775;70.67;61.654;1.753
71641;SPS30;60657;50.122;14.468;2023-03-14T00:06:04;9.833;9.807;9.756;9.168;73.194;73.183;73.161;72.992;63.581;1.878
71641;SPS30;60657;50.122;14.468;2023-03-14T00:09:17;9.649;9.644;9.634;9.1;72.646;72.636;72.62;72.501;63.232;1.816
71641;SPS30;60657;50.122;14.468;2023-03-14T00:12:29;10.128;10.106;10.062;9.465;75.561;75.55;75.529;75.364;65.663;1.86
71641;SPS30;60657;50.122;14.468;2023-03-14T00:15:40;9.855;9.854;9.852;9.315;74.366;74.355;74.34;74.228;64.755;1.767
71641;SPS30;60657;50.122;14.468;2023-03-14T00:18:52;11.378;11.378;11.378;10.76;85.901;85.889;85.872;85.745;74.805;1.693
71641;SPS30;60657;50.122;14.468;2023-03-14T00:22:04;10.728;10.728;10.727;10.144;80.987;80.976;80.96;80.84;70.526;1.77
71641;SPS30;60657;50.122;14.468;2023-03-14T00:25:16;10.672;10.672;10.672;10.092;80.571;80.56;80.544;80.424;70.164;1.686
71641;SPS30;60657;50.122;14.468;2023-03-14T00:28:28;9.507;9.507;9.507;8.99;71.771;71.762;71.747;71.64;62.5;1.769
71641;SPS30;60657;50.122;14.468;2023-03-14T00:31:40;10.053;10.029;9.981;9.384;74.92;74.909;74.887;74.72;65.094;1.873
71641;SPS30;60657;50.122;14.468;2023-03-14T00:34:51;11.867;11.867;11.867;11.222;89.594;89.582;89.564;89.431;78.022;1.719
71641;SPS30;60657;50.122;14.468;2023-03-14T00:38:03;12.382;12.382;12.382;11.709;93.479;93.466;93.448;93.309;81.404;1.755
71641;SPS30;60657;50.122;14.468;2023-03-14T00:41:16;10.7;10.699;10.698;10.115;80.751;80.74;80.724;80.603;70.316;1.8
71641;SPS30;60657;50.122;14.468;2023-03-14T00:44:29;11.322;11.322;11.322;10.707;85.477;85.465;85.449;85.322;74.436;1.777
71641;SPS30;60657;50.122;14.468;2023-03-14T00:47:40;10.968;10.968;10.968;10.372;82.802;82.791;82.775;82.651;72.107;1.8
71641;SPS30;60657;50.122;14.468;2023-03-14T00:50:52;11.007;11.007;11.007;10.408;83.095;83.084;83.067;82.944;72.362;1.705
71641;SPS30;60657;50.122;14.468;2023-03-14T00:54:04;10.961;10.961;10.961;10.366;82.753;82.742;82.726;82.603;72.064;1.717
71641;SPS30;60657;50.122;14.468;2023-03-14T00:57:16;12.552;12.552;12.552;11.87;94.767;94.754;94.736;94.595;82.526;1.744
71641;SPS30;60657;50.122;14.468;2023-03-14T01:00:28;13.562;13.562;13.562;12.825;102.391;102.377;102.357;102.205;89.165;1.723
71641;SPS30;60657;50.122;14.468;2023-03-14T01:03:39;13.697;13.697;13.697;12.953;103.411;103.397;103.377;103.223;90.054;1.689
71641;SPS30;60657;50.122;14.468;2023-03-14T01:06:51;12.395;12.395;12.395;11.721;93.578;93.565;93.546;93.407;81.49;1.67
71641;SPS30;60657;50.122;14.468;2023-03-14T01:10:04;12.594;12.594;12.594;11.909;95.078;95.065;95.046;94.905;82.797;1.721
71641;SPS30;60657;50.122;14.468;2023-03-14T01:13:16;12.165;12.165;12.165;11.504;91.845;91.833;91.815;91.678;79.982;1.712
71641;SPS30;60657;50.122;14.468;2023-03-14T01:16:31;11.584;11.584;11.584;10.954;87.453;87.441;87.424;87.294;76.157;1.713
71641;SPS30;60657;50.122;14.468;2023-03-14T01:19:43;11.291;11.291;11.291;10.678;85.246;85.234;85.218;85.091;74.235;1.731
71641;SPS30;60657;50.122;14.468;2023-03-14T01:22:55;10.889;10.889;10.889;10.297;82.209;82.197;82.181;82.059;71.59;1.733
71641;SPS30;60657;50.122;14.468;2023-03-14T01:26:09;10.353;10.353;10.353;9.79;78.162;78.152;78.136;78.02;68.066;1.741
71641;SPS30;60657;50.122;14.468;2023-03-14T01:29:22;10.43;10.43;10.43;9.863;78.744;78.733;78.718;78.601;68.573;1.759
71641;SPS30;60657;50.122;14.468;2023-03-14T01:32:33;10.463;10.463;10.463;9.895;78.994;78.983;78.967;78.85;68.79;1.761
71641;SPS30;60657;50.122;14.468;2023-03-14T01:35:46;9.452;9.449;9.442;8.921;71.217;71.208;71.192;71.078;61.996;1.777
71641;SPS30;60657;50.122;14.468;2023-03-14T01:39:00;10.693;10.693;10.693;10.112;80.727;80.716;80.7;80.58;70.299;1.778
71641;SPS30;60657;50.122;14.468;2023-03-14T01:42:13;10.419;10.398;10.356;9.746;77.805;77.794;77.772;77.607;67.625;1.843
71641;SPS30;60657;50.122;14.468;2023-03-14T01:47:35;10.057;10.057;10.057;9.51;75.927;75.917;75.902;75.789;66.12;1.708
71641;SPS30;60657;50.122;14.468;2023-03-14T01:50:47;11.192;11.192;11.192;10.584;84.495;84.483;84.466;84.341;73.581;1.764
71641;SPS30;60657;50.122;14.468;2023-03-14T01:54:05;9.927;9.909;9.874;9.298;74.231;74.221;74.201;74.05;64.535;1.805
71641;SPS30;60657;50.122;14.468;2023-03-14T01:57:23;10.015;10.015;10.015;9.47;75.608;75.597;75.582;75.47;65.842;1.659
71641;SPS30;60657;50.122;14.468;2023-03-14T02:00:39;11.619;11.61;11.593;10.943;87.364;87.352;87.332;87.182;76.025;1.812
71641;SPS30;60657;50.122;14.468;2023-03-14T02:03:53;9.055;9.055;9.055;8.563;68.363;68.353;68.34;68.238;59.532;1.767
71641;SPS30;60657;50.122;14.468;2023-03-14T02:07:11;9.202;9.202;9.202;8.702;69.469;69.46;69.446;69.343;60.496;1.688
71641;SPS30;60657;50.122;14.468;2023-03-14T02:10:28;10.919;10.919;10.919;10.326;82.434;82.422;82.406;82.284;71.786;1.781
71641;SPS30;60657;50.122;14.468;2023-03-14T02:13:43;10.423;10.42;10.415;9.842;78.573;78.562;78.546;78.422;68.406;1.804
71641;SPS30;60657;50.122;14.468;2023-03-14T02:16:55;10.614;10.614;10.614;10.037;80.131;80.12;80.104;79.985;69.78;1.667
71641;SPS30;60657;50.122;14.468;2023-03-14T02:20:15;10.277;10.277;10.277;9.719;77.592;77.581;77.566;77.45;67.569;1.731
71641;SPS30;60657;50.122;14.468;2023-03-14T02:23:43;10.27;10.269;10.267;9.706;77.491;77.481;77.465;77.347;67.475;1.794
71641;SPS30;60657;50.122;14.468;2023-03-14T02:27:04;9.776;9.776;9.776;9.245;73.805;73.795;73.781;73.671;64.272;1.737
71641;SPS30;60657;50.122;14.468;2023-03-14T02:30:18;9.625;9.625;9.625;9.102;72.667;72.657;72.643;72.535;63.281;1.703
71641;SPS30;60657;50.122;14.468;2023-03-14T02:33:31;9.22;9.22;9.22;8.719;69.609;69.6;69.586;69.483;60.618;1.709
71641;SPS30;60657;50.122;14.468;2023-03-14T02:36:43;10.133;10.112;10.069;9.473;75.625;75.614;75.593;75.43;65.723;1.853
71641;SPS30;60657;50.122;14.468;2023-03-14T02:39:55;8.782;8.766;8.735;8.226;65.669;65.659;65.642;65.508;57.09;1.817
71641;SPS30;60657;50.122;14.468;2023-03-14T02:43:07;8.82;8.795;8.744;8.212;65.556;65.546;65.526;65.369;56.931;1.833
71641;SPS30;60657;50.122;14.468;2023-03-14T02:46:21;6.062;6.062;6.062;5.733;45.766;45.76;45.751;45.683;39.854;1.774
71641;SPS30;60657;50.122;14.468;2023-03-14T02:49:33;6.607;6.607;6.607;6.248;49.877;49.87;49.861;49.786;43.435;1.783
71641;SPS30;60657;50.122;14.468;2023-03-14T02:52:48;5.927;5.927;5.927;5.605;44.744;44.738;44.73;44.663;38.965;1.723
71641;SPS30;60657;50.122;14.468;2023-03-14T02:56:00;6.501;6.501;6.501;6.147;49.078;49.071;49.061;48.988;42.738;1.765
71641;SPS30;60657;50.122;14.468;2023-03-14T02:59:12;6.76;6.76;6.76;6.392;51.031;51.024;51.014;50.938;44.439;1.793
71641;SPS30;60657;50.122;14.468;2023-03-14T03:02:24;6.6;6.6;6.6;6.241;49.826;49.819;49.809;49.735;43.39;1.609
71641;SPS30;60657;50.122;14.468;2023-03-14T03:05:37;6.245;6.245;6.245;5.906;47.149;47.143;47.134;47.064;41.059;1.733
71641;SPS30;60657;50.122;14.468;2023-03-14T03:08:49;6.314;6.314;6.314;5.971;47.669;47.662;47.653;47.582;41.512;1.764
71641;SPS30;60657;50.122;14.468;2023-03-14T03:12:01;6.583;6.583;6.583;6.225;49.694;49.688;49.678;49.604;43.274;1.794
71641;SPS30;60657;50.122;14.468;2023-03-14T03:15:13;7.512;7.512;7.512;7.104;56.716;56.708;56.697;56.612;49.39;1.695
71641;SPS30;60657;50.122;14.468;2023-03-14T03:18:27;5.6;5.599;5.598;5.292;42.246;42.24;42.232;42.167;36.784;1.787
71641;SPS30;60657;50.122;14.468;2023-03-14T03:21:38;5.631;5.629;5.626;5.317;42.447;42.441;42.432;42.365;36.954;1.787
71641;SPS30;60657;50.122;14.468;2023-03-14T03:24:50;5.714;5.714;5.714;5.404;43.141;43.135;43.126;43.062;37.568;1.727
71641;SPS30;60657;50.122;14.468;2023-03-14T03:28:02;5.946;5.946;5.946;5.623;44.893;44.887;44.878;44.811;39.094;1.712
71641;SPS30;60657;50.122;14.468;2023-03-14T03:31:14;6.541;6.541;6.541;6.186;49.383;49.376;49.366;49.293;43.004;1.686
71641;SPS30;60657;50.122;14.468;2023-03-14T03:34:27;6.537;6.537;6.537;6.182;49.356;49.349;49.339;49.266;42.981;1.724
71641;SPS30;60657;50.122;14.468;2023-03-14T03:37:39;6.41;6.41;6.41;6.061;48.39;48.384;48.374;48.302;42.14;1.721
71641;SPS30;60657;50.122;14.468;2023-03-14T03:40:51;6.343;6.343;6.343;5.999;47.889;47.883;47.873;47.802;41.704;1.681
71641;SPS30;60657;50.122;14.468;2023-03-14T03:44:03;6.233;6.233;6.233;5.894;47.057;47.051;47.042;46.972;40.979;1.749
71641;SPS30;60657;50.122;14.468;2023-03-14T03:47:15;6.489;6.486;6.481;6.123;48.883;48.877;48.866;48.787;42.553;1.823
71641;SPS30;60657;50.122;14.468;2023-03-14T03:50:27;6.77;6.77;6.77;6.402;51.113;51.106;51.096;51.02;44.511;1.804
71641;SPS30;60657;50.122;14.468;2023-03-14T03:53:39;9.493;9.49;9.484;8.962;71.549;71.539;71.524;71.411;62.289;1.781
71641;SPS30;60657;50.122;14.468;2023-03-14T03:56:54;7.692;7.692;7.692;7.274;58.07;58.062;58.051;57.964;50.569;1.654
71641;SPS30;60657;50.122;14.468;2023-03-14T04:00:07;6.862;6.862;6.862;6.489;51.805;51.798;51.788;51.711;45.114;1.705
71641;SPS30;60657;50.122;14.468;2023-03-14T04:03:19;6.294;6.294;6.294;5.952;47.52;47.513;47.504;47.433;41.382;1.65
71641;SPS30;60657;50.122;14.468;2023-03-14T04:06:31;7.038;7.038;7.038;6.655;53.134;53.126;53.116;53.037;46.27;1.713
71641;SPS30;60657;50.122;14.468;2023-03-14T04:09:43;6.847;6.847;6.847;6.475;51.692;51.685;51.675;51.598;45.015;1.798
71641;SPS30;60657;50.122;14.468;2023-03-14T04:12:55;6.234;6.234;6.234;5.895;47.062;47.056;47.047;46.977;40.983;1.78
71641;SPS30;60657;50.122;14.468;2023-03-14T04:16:13;6.686;6.686;6.686;6.323;50.478;50.471;50.461;50.386;43.958;1.66
71641;SPS30;60657;50.122;14.468;2023-03-14T04:19:26;6.47;6.47;6.47;6.119;48.85;48.843;48.833;48.761;42.54;1.698
71641;SPS30;60657;50.122;14.468;2023-03-14T04:22:39;5.969;5.969;5.969;5.644;45.062;45.055;45.047;44.98;39.241;1.735
71641;SPS30;60657;50.122;14.468;2023-03-14T04:25:51;5.477;5.465;5.442;5.12;40.877;40.871;40.86;40.772;35.525;1.841
71641;SPS30;60657;50.122;14.468;2023-03-14T04:29:03;6.927;6.913;6.885;6.48;51.731;51.724;51.71;51.6;44.964;1.914
71641;SPS30;60657;50.122;14.468;2023-03-14T04:32:15;7.245;7.244;7.242;6.846;54.657;54.649;54.638;54.555;47.591;1.822
71641;SPS30;60657;50.122;14.468;2023-03-14T04:35:27;6.16;6.16;6.16;5.826;46.509;46.502;46.493;46.424;40.501;1.724
71641;SPS30;60657;50.122;14.468;2023-03-14T04:38:41;6.157;6.157;6.157;5.822;46.482;46.475;46.466;46.397;40.478;1.692
71641;SPS30;60657;50.122;14.468;2023-03-14T04:41:53;6.412;6.403;6.385;6.017;48.037;48.03;48.018;47.925;41.776;1.856
71641;SPS30;60657;50.122;14.468;2023-03-14T04:45:07;7.242;7.242;7.242;6.848;54.675;54.667;54.657;54.575;47.613;1.704
71641;SPS30;60657;50.122;14.468;2023-03-14T04:48:19;7.024;7.024;7.024;6.642;53.027;53.02;53.009;52.931;46.178;1.779
71641;SPS30;60657;50.122;14.468;2023-03-14T04:51:31;6.649;6.644;6.636;6.266;50.027;50.02;50.009;49.925;43.54;1.831
71641;SPS30;60657;50.122;14.468;2023-03-14T04:54:42;6.141;6.129;6.107;5.749;45.897;45.891;45.878;45.783;39.898;1.861
71641;SPS30;60657;50.122;14.468;2023-03-14T04:57:54;6.148;6.141;6.125;5.775;46.106;46.1;46.088;46.002;40.103;1.899
71641;SPS30;60657;50.122;14.468;2023-03-14T05:01:07;6.075;6.075;6.075;5.745;45.867;45.86;45.851;45.783;39.942;1.738
71641;SPS30;60657;50.122;14.468;2023-03-14T05:04:19;5.275;5.275;5.275;4.988;39.823;39.817;39.809;39.75;34.679;1.784
71641;SPS30;60657;50.122;14.468;2023-03-14T05:07:30;4.412;4.412;4.412;4.172;33.31;33.305;33.299;33.249;29.007;1.754
71641;SPS30;60657;50.122;14.468;2023-03-14T05:10:42;4.607;4.607;4.607;4.357;34.783;34.778;34.771;34.72;30.29;1.756
71641;SPS30;60657;50.122;14.468;2023-03-14T05:13:54;4.282;4.282;4.282;4.049;32.327;32.323;32.317;32.269;28.152;1.737
71641;SPS30;60657;50.122;14.468;2023-03-14T05:17:06;4.062;4.059;4.053;3.827;30.552;30.548;30.541;30.489;26.588;1.837
71641;SPS30;60657;50.122;14.468;2023-03-14T05:20:18;3.736;3.736;3.736;3.533;28.202;28.198;28.193;28.151;24.559;1.733
71641;SPS30;60657;50.122;14.468;2023-03-14T05:23:30;3.615;3.615;3.615;3.418;27.291;27.287;27.282;27.242;23.766;1.633
71641;SPS30;60657;50.122;14.468;2023-03-14T05:26:42;2.497;2.497;2.497;2.361;18.853;18.85;18.847;18.819;16.418;1.731
71641;SPS30;60657;50.122;14.468;2023-03-14T05:29:54;2.868;2.868;2.868;2.713;21.656;21.653;21.649;21.616;18.859;1.77
71641;SPS30;60657;50.122;14.468;2023-03-14T05:33:06;1.525;1.522;1.515;1.426;11.382;11.38;11.377;11.353;9.892;1.901
71641;SPS30;60657;50.122;14.468;2023-03-14T05:36:18;1.973;1.971;1.965;1.853;14.791;14.789;14.785;14.757;12.865;1.857
71641;SPS30;60657;50.122;14.468;2023-03-14T05:39:30;2.054;2.054;2.054;1.942;15.504;15.502;15.499;15.476;13.502;1.754
71641;SPS30;60657;50.122;14.468;2023-03-14T05:42:41;3.252;3.252;3.252;3.075;24.553;24.55;24.545;24.509;21.382;1.746
71641;SPS30;60657;50.122;14.468;2023-03-14T05:45:53;3.565;3.565;3.565;3.371;26.916;26.912;26.907;26.867;23.439;1.761
71641;SPS30;60657;50.122;14.468;2023-03-14T05:49:05;2.9;2.9;2.899;2.742;21.89;21.887;21.883;21.85;19.063;1.767
71641;SPS30;60657;50.122;14.468;2023-03-14T05:52:19;2.785;2.785;2.784;2.631;21.008;21.005;21.001;20.969;18.292;1.845
71641;SPS30;60657;50.122;14.468;2023-03-14T05:55:31;2.271;2.271;2.271;2.147;17.144;17.142;17.139;17.113;14.93;1.767
71641;SPS30;60657;50.122;14.468;2023-03-14T05:58:43;1.826;1.826;1.826;1.727;13.785;13.783;13.78;13.76;12.004;1.747
71641;SPS30;60657;50.122;14.468;2023-03-14T06:01:56;1.373;1.373;1.373;1.298;10.365;10.364;10.362;10.347;9.027;1.752
71641;SPS30;60657;50.122;14.468;2023-03-14T06:05:18;1.859;1.859;1.859;1.758;14.036;14.034;14.031;14.01;12.223;1.753
71641;SPS30;60657;50.122;14.468;2023-03-14T06:08:30;1.542;1.542;1.542;1.459;11.645;11.643;11.641;11.624;10.141;1.718
71641;SPS30;60657;50.122;14.468;2023-03-14T06:11:42;1.393;1.393;1.393;1.318;10.519;10.517;10.515;10.499;9.16;1.739
71641;SPS30;60657;50.122;14.468;2023-03-14T06:14:54;1.577;1.577;1.577;1.491;11.904;11.902;11.9;11.882;10.366;1.771
71641;SPS30;60657;50.122;14.468;2023-03-14T06:18:06;1.53;1.53;1.53;1.447;11.554;11.552;11.55;11.533;10.062;1.771
71641;SPS30;60657;50.122;14.468;2023-03-14T06:21:18;1.471;1.471;1.471;1.391;11.106;11.104;11.102;11.086;9.671;1.773
71641;SPS30;60657;50.122;14.468;2023-03-14T06:24:30;1.186;1.185;1.184;1.118;8.925;8.923;8.921;8.907;7.768;1.832
71641;SPS30;60657;50.122;14.468;2023-03-14T06:27:42;1.294;1.292;1.289;1.215;9.697;9.695;9.693;9.675;8.434;1.859
71641;SPS30;60657;50.122;14.468;2023-03-14T06:30:54;1.342;1.341;1.338;1.261;10.07;10.069;10.066;10.047;8.759;1.832
71641;SPS30;60657;50.122;14.468;2023-03-14T06:34:06;1.39;1.387;1.38;1.297;10.352;10.351;10.348;10.324;8.993;1.87
71641;SPS30;60657;50.122;14.468;2023-03-14T06:37:18;1.051;1.049;1.046;1.969;7.86;7.859;7.857;7.841;6.834;1.822
71641;SPS30;60657;50.122;14.468;2023-03-14T06:40:30;1.893;1.891;1.885;1.776;7.09;7.089;7.087;7.074;6.166;1.821
71641;SPS30;60657;50.122;14.468;2023-03-14T06:43:43;1.48;1.477;1.47;1.383;5.521;5.52;5.518;5.506;4.798;1.826
71641;SPS30;60657;50.122;14.468;2023-03-14T06:46:54;1.373;1.373;1.373;1.299;5.183;5.183;5.182;5.174;4.514;1.784
71641;SPS30;60657;50.122;14.468;2023-03-14T06:50:08;1.886;1.886;1.885;1.782;7.115;7.114;7.112;7.101;6.195;1.793
71641;SPS30;60657;50.122;14.468;2023-03-14T06:53:21;1.248;1.243;1.232;1.154;9.209;9.208;9.204;9.178;7.987;1.828
71641;SPS30;60657;50.122;14.468;2023-03-14T06:56:33;1.805;1.799;1.786;1.674;6.683;6.682;6.679;6.662;5.799;1.822
71641;SPS30;60657;50.122;14.468;2023-03-14T06:59:45;1.003;1.999;1.983;1.857;7.411;7.41;7.407;7.387;6.429;1.842
71641;SPS30;60657;50.122;14.468;2023-03-14T07:02:56;1.203;1.198;1.188;1.113;4.441;4.441;4.439;4.427;3.853;1.919
71641;SPS30;60657;50.122;14.468;2023-03-14T07:06:09;1.542;1.535;1.522;1.425;5.688;5.687;5.685;5.669;4.934;1.925
71641;SPS30;60657;50.122;14.468;2023-03-14T07:09:23;1.752;1.743;1.725;1.611;12.859;12.856;12.851;12.811;11.141;1.937
71641;SPS30;60657;50.122;14.468;2023-03-14T07:12:36;1.032;1.027;1.018;1.903;7.596;7.595;7.592;7.57;6.586;1.907
71641;SPS30;60657;50.122;14.468;2023-03-14T07:15:48;1.254;1.245;1.227;1.141;9.107;9.106;9.101;9.067;7.877;1.967
71641;SPS30;60657;50.122;14.468;2023-03-14T07:19:01;1.198;1.188;1.169;1.083;4.323;4.322;4.319;4.302;3.734;1.013
71641;SPS30;60657;50.122;14.468;2023-03-14T07:22:14;1.131;1.122;1.105;1.025;8.183;8.182;8.178;8.145;7.072;1.014
71641;SPS30;60657;50.122;14.468;2023-03-14T07:25:26;1.051;1.044;1.03;1.917;7.654;7.652;7.649;7.621;6.622;1.952
71641;SPS30;60657;50.122;14.468;2023-03-14T07:28:38;1.017;1.013;1.004;1.88;7.505;7.504;7.501;7.48;6.509;1.916
71641;SPS30;60657;50.122;14.468;2023-03-14T07:31:50;1.649;1.642;1.628;1.524;6.082;6.081;6.079;6.061;5.275;1.924
71641;SPS30;60657;50.122;14.468;2023-03-14T07:35:03;1.935;1.925;1.907;1.782;7.112;7.111;7.108;7.086;6.164;1.954
71641;SPS30;60657;50.122;14.468;2023-03-14T07:38:16;1.193;1.189;1.179;1.104;8.816;8.815;8.812;8.787;7.648;1.911
71641;SPS30;60657;50.122;14.468;2023-03-14T07:41:28;1.382;1.374;1.359;1.268;10.124;10.122;10.118;10.085;8.769;1.994
71641;SPS30;60657;50.122;14.468;2023-03-14T07:44:40;1.967;1.954;1.928;1.794;7.16;7.159;7.156;7.13;6.195;1.987
71641;SPS30;60657;50.122;14.468;2023-03-14T07:47:52;1.888;1.875;1.851;1.723;6.878;6.877;6.874;6.849;5.952;1.952
71641;SPS30;60657;50.122;14.468;2023-03-14T07:51:05;1.612;1.6;1.577;1.464;5.843;5.842;5.839;5.817;5.052;1.93
71641;SPS30;60657;50.122;14.468;2023-03-14T07:54:17;1.325;1.313;1.288;1.19;9.5;9.498;9.493;9.45;8.196;1.98
71641;SPS30;60657;50.122;14.468;2023-03-14T07:57:29;1.641;1.622;1.585;1.457;5.818;5.817;5.813;5.782;5.009;1.967
71641;SPS30;60657;50.122;14.468;2023-03-14T08:00:45;1.861;1.841;1.801;1.657;6.615;6.613;6.609;6.576;5.698;1.952
71641;SPS30;60657;50.122;14.468;2023-03-14T08:03:57;1.577;1.562;1.533;1.416;5.653;5.652;5.649;5.623;4.877;1.962
71641;SPS30;60657;50.122;14.468;2023-03-14T08:07:09;1.139;1.126;1.101;1.013;8.091;8.089;8.084;8.043;6.969;1.964
71641;SPS30;60657;50.122;14.468;2023-03-14T08:10:21;1.746;1.722;1.676;1.531;6.113;6.112;6.107;6.07;5.25;1.995
71641;SPS30;60657;50.122;14.468;2023-03-14T08:13:38;1.039;1.025;1.999;1.831;7.31;7.308;7.303;7.261;6.284;1.944
71641;SPS30;60657;50.122;14.468;2023-03-14T08:16:50;1.067;1.058;1.039;1.921;7.668;7.667;7.662;7.629;6.618;1.922
71641;SPS30;60657;50.122;14.468;2023-03-14T08:20:04;1.762;1.745;1.711;1.578;6.3;6.299;6.295;6.266;5.433;1.955
71641;SPS30;60657;50.122;14.468;2023-03-14T08:23:16;1.916;1.897;1.86;1.716;6.851;6.85;6.846;6.813;5.908;1.929
71641;SPS30;60657;50.122;14.468;2023-03-14T08:26:28;1.767;1.749;1.713;1.579;6.302;6.301;6.297;6.267;5.432;1.948
71641;SPS30;60657;50.122;14.468;2023-03-14T08:29:41;1.878;1.855;1.811;1.661;6.631;6.63;6.626;6.589;5.705;1.0
71641;SPS30;60657;50.122;14.468;2023-03-14T08:32:56;1.24;1.226;1.199;1.103;8.804;8.803;8.797;8.752;7.582;1.992
71641;SPS30;60657;50.122;14.468;2023-03-14T08:36:08;1.127;1.115;1.092;1.006;8.028;8.027;8.022;7.982;6.918;1.918
71641;SPS30;60657;50.122;14.468;2023-03-14T08:39:21;1.229;1.211;1.176;1.072;8.559;8.557;8.55;8.496;7.344;1.938
71641;SPS30;60657;50.122;14.468;2023-03-14T08:42:33;1.224;1.202;1.16;1.049;8.371;8.369;8.361;8.298;7.157;1.946
71641;SPS30;60657;50.122;14.468;2023-03-14T08:45:46;1.236;1.211;1.16;1.04;8.301;8.298;8.289;8.218;7.071;1.996
71641;SPS30;60657;50.122;14.468;2023-03-14T08:48:58;1.81;1.774;1.703;1.53;6.106;6.104;6.098;6.047;5.207;1.009
71641;SPS30;60657;50.122;14.468;2023-03-14T08:52:11;1.006;1.962;1.865;1.653;6.597;6.596;6.587;6.52;5.594;1.059
71641;SPS30;60657;50.122;14.468;2023-03-14T08:55:23;1.581;1.536;1.449;1.269;10.134;10.131;10.116;9.998;8.551;1.053
71641;SPS30;60657;50.122;14.468;2023-03-14T08:58:35;1.527;1.472;1.364;1.166;9.305;9.301;9.283;9.142;7.764;1.1
71641;SPS30;60657;50.122;14.468;2023-03-14T09:01:47;1.923;1.867;1.756;1.534;12.249;12.245;12.227;12.078;10.321;1.039
71641;SPS30;60657;50.122;14.468;2023-03-14T09:05:00;1.452;1.412;1.332;1.169;9.332;9.329;9.315;9.207;7.877;1.064
71641;SPS30;60657;50.122;14.468;2023-03-14T09:08:12;1.303;1.269;1.203;1.061;8.469;8.467;8.455;8.364;7.167;1.055
71641;SPS30;60657;50.122;14.468;2023-03-14T09:11:24;1.127;1.101;1.051;1.874;7.479;7.477;7.468;7.398;6.356;1.06
71641;SPS30;60657;50.122;14.468;2023-03-14T09:14:36;1.914;1.866;1.77;1.564;12.484;12.481;12.464;12.332;10.572;1.094
71641;SPS30;60657;50.122;14.468;2023-03-14T09:17:52;1.749;1.705;1.619;1.432;11.435;11.432;11.417;11.298;9.689;1.072
71641;SPS30;60657;50.122;14.468;2023-03-14T09:21:05;1.719;1.682;1.609;1.439;11.485;11.482;11.469;11.366;9.775;1.079
71641;SPS30;60657;50.122;14.468;2023-03-14T09:24:17;1.829;1.791;1.716;1.537;6.135;6.133;6.126;6.073;5.225;1.071
71641;SPS30;60657;50.122;14.468;2023-03-14T09:27:29;1.42;1.384;1.315;1.163;9.285;9.282;9.27;9.173;7.867;1.081
71641;SPS30;60657;50.122;14.468;2023-03-14T09:30:41;1.331;1.297;1.231;1.089;8.694;8.692;8.68;8.59;7.365;1.094
71641;SPS30;60657;50.122;14.468;2023-03-14T09:33:53;1.306;1.274;1.212;1.074;8.574;8.571;8.56;8.474;7.27;1.084
71641;SPS30;60657;50.122;14.468;2023-03-14T09:37:06;1.499;1.459;1.381;1.217;9.716;9.713;9.7;9.593;8.217;1.111
71641;SPS30;60657;50.122;14.468;2023-03-14T09:40:21;1.211;1.18;1.12;1.98;7.905;7.903;7.892;7.809;6.696;1.09
71641;SPS30;60657;50.122;14.468;2023-03-14T09:43:35;1.499;1.456;1.371;1.2;9.579;9.576;9.561;9.447;8.077;1.103
71641;SPS30;60657;50.122;14.468;2023-03-14T09:46:52;1.233;1.193;1.113;1.924;7.679;7.676;7.663;7.557;6.438;1.134
71641;SPS30;60657;50.122;14.468;2023-03-14T09:50:12;1.194;1.15;1.062;1.808;7.218;7.215;7.201;7.086;6.011;1.146
71641;SPS30;60657;50.122;14.468;2023-03-14T09:53:28;1.167;1.131;1.059;1.839;7.339;7.336;7.324;7.229;6.166;1.096
71641;SPS30;60657;50.122;14.468;2023-03-14T09:56:48;1.467;1.42;1.328;1.15;9.18;9.177;9.162;9.039;7.706;1.094
71641;SPS30;60657;50.122;14.468;2023-03-14T10:00:03;1.246;1.206;1.127;1.951;7.786;7.783;7.77;7.665;6.533;1.117
71641;SPS30;60657;50.122;14.468;2023-03-14T10:03:26;1.602;1.547;1.439;1.236;9.871;9.867;9.85;9.707;8.257;1.124
71641;SPS30;60657;50.122;14.468;2023-03-14T10:06:41;1.194;1.152;1.071;1.837;7.334;7.331;7.317;7.21;6.13;1.107
71641;SPS30;60657;50.122;14.468;2023-03-14T10:14:02;1.493;1.446;1.353;1.174;9.369;9.366;9.351;9.227;7.869;1.067
71641;SPS30;60657;50.122;14.468;2023-03-14T10:17:16;1.21;1.167;1.083;1.857;7.414;7.411;7.397;7.287;6.194;1.083
71641;SPS30;60657;50.122;14.468;2023-03-14T10:20:33;1.779;1.706;1.562;1.313;10.478;10.474;10.45;10.265;8.675;1.13
71641;SPS30;60657;50.122;14.468;2023-03-14T10:23:46;2.512;2.42;2.239;1.91;15.247;15.241;15.211;14.975;12.711;1.105
71641;SPS30;60657;50.122;14.468;2023-03-14T10:27:00;1.271;1.227;1.14;1.955;7.805;7.802;7.788;7.673;6.524;1.081
71641;SPS30;60657;50.122;14.468;2023-03-14T10:30:30;1.993;1.916;1.762;1.491;11.903;11.898;11.873;11.674;9.886;1.084
71641;SPS30;60657;50.122;14.468;2023-03-14T10:33:59;1.615;1.56;1.452;1.249;9.973;9.97;9.952;9.809;8.347;1.071
71641;SPS30;60657;50.122;14.468;2023-03-14T10:37:18;1.624;1.566;1.452;1.242;9.917;9.914;9.895;9.746;8.28;1.105
71641;SPS30;60657;50.122;14.468;2023-03-14T10:40:37;1.089;1.056;1.979;1.72;6.866;6.864;6.853;6.765;5.773;1.091
71641;SPS30;60657;50.122;14.468;2023-03-14T10:43:53;1.425;1.386;1.309;1.15;9.184;9.182;9.168;9.065;7.759;1.106
71641;SPS30;60657;50.122;14.468;2023-03-14T10:47:18;1.596;1.549;1.457;1.273;10.161;10.158;10.143;10.019;8.562;1.11
71641;SPS30;60657;50.122;14.468;2023-03-14T10:50:32;1.28;1.238;1.153;1.988;7.937;7.934;7.92;7.809;6.648;1.135
71641;SPS30;60657;50.122;14.468;2023-03-14T10:53:46;1.144;1.105;1.029;1.772;7.071;7.069;7.056;6.956;5.92;1.098
71641;SPS30;60657;50.122;14.468;2023-03-14T10:57:00;2.9;2.788;2.567;2.175;17.361;17.354;17.318;17.032;14.428;1.179
71641;SPS30;60657;50.122;14.468;2023-03-14T11:00:21;2.267;2.176;1.998;1.685;13.451;13.446;13.417;13.186;11.155;1.169
71641;SPS30;60657;50.122;14.468;2023-03-14T11:03:35;1.989;1.935;1.828;1.606;12.824;12.82;12.802;12.656;10.833;1.092
71641;SPS30;60657;50.122;14.468;2023-03-14T11:06:56;1.322;1.298;1.25;1.128;9.006;9.004;8.995;8.926;7.694;1.042
71641;SPS30;60657;50.122;14.468;2023-03-14T11:10:19;1.576;1.55;1.5;1.362;10.87;10.867;10.858;10.783;9.309;1.042
71641;SPS30;60657;50.122;14.468;2023-03-14T11:13:39;1.372;1.346;1.295;1.167;9.317;9.315;9.306;9.232;7.955;1.067
71641;SPS30;60657;50.122;14.468;2023-03-14T11:17:00;1.163;1.142;1.101;1.988;7.936;7.934;7.926;7.866;6.782;1.071